sensor_id;sensor_type;location;lat;lon;timestamp;P1;durP1;ratioP1;P2;durP2;ratioP2
840;SDS011;406;48.566;13.450;2023-02-28T00:00:25;7.38;;;4.47;;
840;SDS011;406;48.566;13.450;2023-02-28T00:02:52;5.88;;;3.72;;
840;SDS011;406;48.566;13.450;2023-02-28T00:05:20;8.00;;;3.78;;
840;SDS011;406;48.566;13.450;2023-02-28T00:07:48;8.00;;;6.82;;
840;SDS011;406;48.566;13.450;2023-02-28T00:10:17;5.90;;;4.88;;
840;SDS011;406;48.566;13.450;2023-02-28T00:12:47;6.32;;;3.92;;
840;SDS011;406;48.566;13.450;2023-02-28T00:15:14;4.80;;;3.10;;
840;SDS011;406;48.566;13.450;2023-02-28T00:17:41;6.80;;;4.30;;
840;SDS011;406;48.566;13.450;2023-02-28T00:20:08;8.68;;;4.90;;
840;SDS011;406;48.566;13.450;2023-02-28T00:22:36;8.60;;;6.20;;
840;SDS011;406;48.566;13.450;2023-02-28T00:25:08;8.13;;;5.82;;
840;SDS011;406;48.566;13.450;2023-02-28T00:27:36;9.10;;;4.38;;
840;SDS011;406;48.566;13.450;2023-02-28T00:30:03;8.50;;;6.20;;
840;SDS011;406;48.566;13.450;2023-02-28T00:32:31;10.20;;;6.90;;
840;SDS011;406;48.566;13.450;2023-02-28T00:35:00;10.30;;;6.00;;
840;SDS011;406;48.566;13.450;2023-02-28T00:37:26;8.10;;;6.25;;
840;SDS011;406;48.566;13.450;2023-02-28T00:39:53;5.25;;;4.07;;
840;SDS011;406;48.566;13.450;2023-02-28T00:42:21;9.05;;;7.43;;
840;SDS011;406;48.566;13.450;2023-02-28T00:44:47;7.32;;;5.25;;
840;SDS011;406;48.566;13.450;2023-02-28T00:47:14;9.45;;;5.95;;
840;SDS011;406;48.566;13.450;2023-02-28T00:49:42;10.60;;;6.85;;
840;SDS011;406;48.566;13.450;2023-02-28T00:52:08;4.93;;;4.00;;
840;SDS011;406;48.566;13.450;2023-02-28T00:54:35;8.88;;;4.78;;
840;SDS011;406;48.566;13.450;2023-02-28T00:57:01;8.02;;;4.70;;
840;SDS011;406;48.566;13.450;2023-02-28T00:59:28;8.77;;;5.03;;
840;SDS011;406;48.566;13.450;2023-02-28T01:04:49;11.85;;;6.07;;
840;SDS011;406;48.566;13.450;2023-02-28T01:07:16;8.98;;;7.03;;
840;SDS011;406;48.566;13.450;2023-02-28T01:09:42;10.85;;;7.60;;
840;SDS011;406;48.566;13.450;2023-02-28T01:12:09;6.45;;;4.50;;
840;SDS011;406;48.566;13.450;2023-02-28T01:14:36;10.40;;;5.97;;
840;SDS011;406;48.566;13.450;2023-02-28T01:17:03;6.95;;;4.32;;
840;SDS011;406;48.566;13.450;2023-02-28T01:19:30;9.13;;;6.13;;
840;SDS011;406;48.566;13.450;2023-02-28T01:21:59;9.38;;;7.88;;
840;SDS011;406;48.566;13.450;2023-02-28T01:24:27;10.40;;;7.10;;
840;SDS011;406;48.566;13.450;2023-02-28T01:26:53;9.55;;;7.40;;
840;SDS011;406;48.566;13.450;2023-02-28T01:29:20;12.70;;;7.55;;
840;SDS011;406;48.566;13.450;2023-02-28T01:31:46;9.35;;;5.43;;
840;SDS011;406;48.566;13.450;2023-02-28T01:34:13;8.48;;;5.47;;
840;SDS011;406;48.566;13.450;2023-02-28T01:36:39;6.55;;;4.90;;
840;SDS011;406;48.566;13.450;2023-02-28T01:39:06;7.72;;;4.90;;
840;SDS011;406;48.566;13.450;2023-02-28T01:41:33;9.15;;;5.47;;
840;SDS011;406;48.566;13.450;2023-02-28T01:44:02;9.68;;;5.10;;
840;SDS011;406;48.566;13.450;2023-02-28T01:46:30;10.60;;;6.35;;
840;SDS011;406;48.566;13.450;2023-02-28T01:49:09;9.60;;;7.75;;
840;SDS011;406;48.566;13.450;2023-02-28T01:51:51;9.43;;;6.57;;
840;SDS011;406;48.566;13.450;2023-02-28T01:54:22;10.07;;;7.07;;
840;SDS011;406;48.566;13.450;2023-02-28T01:56:52;9.73;;;7.20;;
840;SDS011;406;48.566;13.450;2023-02-28T01:59:26;10.32;;;7.63;;
840;SDS011;406;48.566;13.450;2023-02-28T02:01:56;9.93;;;5.47;;
840;SDS011;406;48.566;13.450;2023-02-28T02:04:23;11.10;;;6.30;;
840;SDS011;406;48.566;13.450;2023-02-28T02:06:52;9.40;;;7.97;;
840;SDS011;406;48.566;13.450;2023-02-28T02:09:19;9.88;;;7.28;;
840;SDS011;406;48.566;13.450;2023-02-28T02:11:45;7.28;;;4.97;;
840;SDS011;406;48.566;13.450;2023-02-28T02:16:58;7.43;;;5.20;;
840;SDS011;406;48.566;13.450;2023-02-28T02:25:42;9.13;;;7.22;;
840;SDS011;406;48.566;13.450;2023-02-28T02:28:22;9.77;;;7.50;;
840;SDS011;406;48.566;13.450;2023-02-28T02:39:15;10.52;;;8.00;;
840;SDS011;406;48.566;13.450;2023-02-28T02:41:46;10.77;;;7.88;;
840;SDS011;406;48.566;13.450;2023-02-28T02:44:25;10.02;;;5.40;;
840;SDS011;406;48.566;13.450;2023-02-28T02:47:12;7.70;;;5.45;;
840;SDS011;406;48.566;13.450;2023-02-28T02:49:51;9.98;;;8.20;;
840;SDS011;406;48.566;13.450;2023-02-28T02:52:20;11.88;;;8.88;;
840;SDS011;406;48.566;13.450;2023-02-28T02:54:48;11.02;;;7.20;;
840;SDS011;406;48.566;13.450;2023-02-28T02:57:23;7.60;;;4.43;;
840;SDS011;406;48.566;13.450;2023-02-28T02:59:53;9.10;;;7.57;;
840;SDS011;406;48.566;13.450;2023-02-28T03:02:21;8.43;;;4.78;;
840;SDS011;406;48.566;13.450;2023-02-28T03:04:51;10.75;;;5.80;;
840;SDS011;406;48.566;13.450;2023-02-28T03:07:20;8.05;;;6.63;;
840;SDS011;406;48.566;13.450;2023-02-28T03:09:51;6.97;;;4.65;;
840;SDS011;406;48.566;13.450;2023-02-28T03:12:18;9.75;;;8.75;;
840;SDS011;406;48.566;13.450;2023-02-28T03:17:38;10.85;;;8.35;;
840;SDS011;406;48.566;13.450;2023-02-28T03:20:21;11.88;;;9.13;;
840;SDS011;406;48.566;13.450;2023-02-28T03:26:04;10.80;;;8.48;;
840;SDS011;406;48.566;13.450;2023-02-28T03:31:30;8.68;;;7.13;;
840;SDS011;406;48.566;13.450;2023-02-28T03:36:57;9.20;;;7.15;;
840;SDS011;406;48.566;13.450;2023-02-28T03:42:00;8.43;;;6.03;;
840;SDS011;406;48.566;13.450;2023-02-28T03:44:48;10.90;;;9.13;;
840;SDS011;406;48.566;13.450;2023-02-28T03:47:19;10.57;;;7.88;;
840;SDS011;406;48.566;13.450;2023-02-28T03:49:50;10.38;;;5.20;;
840;SDS011;406;48.566;13.450;2023-02-28T03:52:21;8.98;;;7.15;;
840;SDS011;406;48.566;13.450;2023-02-28T03:54:50;11.38;;;8.05;;
840;SDS011;406;48.566;13.450;2023-02-28T04:00:27;9.60;;;7.72;;
840;SDS011;406;48.566;13.450;2023-02-28T04:02:55;11.15;;;7.45;;
840;SDS011;406;48.566;13.450;2023-02-28T04:05:22;7.60;;;4.25;;
840;SDS011;406;48.566;13.450;2023-02-28T04:07:49;13.95;;;6.93;;
840;SDS011;406;48.566;13.450;2023-02-28T04:10:16;9.20;;;7.25;;
840;SDS011;406;48.566;13.450;2023-02-28T04:12:43;9.73;;;5.78;;
840;SDS011;406;48.566;13.450;2023-02-28T04:15:09;11.82;;;6.43;;
840;SDS011;406;48.566;13.450;2023-02-28T04:17:37;7.90;;;5.35;;
840;SDS011;406;48.566;13.450;2023-02-28T04:20:04;11.82;;;9.07;;
840;SDS011;406;48.566;13.450;2023-02-28T04:22:35;11.30;;;8.40;;
840;SDS011;406;48.566;13.450;2023-02-28T04:25:03;13.05;;;8.88;;
840;SDS011;406;48.566;13.450;2023-02-28T04:27:30;13.57;;;8.68;;
840;SDS011;406;48.566;13.450;2023-02-28T04:29:58;9.32;;;5.03;;
840;SDS011;406;48.566;13.450;2023-02-28T04:32:24;9.32;;;6.57;;
840;SDS011;406;48.566;13.450;2023-02-28T04:34:51;9.75;;;6.80;;
840;SDS011;406;48.566;13.450;2023-02-28T04:37:17;6.13;;;4.68;;
840;SDS011;406;48.566;13.450;2023-02-28T04:39:44;11.50;;;7.32;;
840;SDS011;406;48.566;13.450;2023-02-28T04:42:10;10.63;;;8.40;;
840;SDS011;406;48.566;13.450;2023-02-28T04:44:37;11.18;;;9.10;;
840;SDS011;406;48.566;13.450;2023-02-28T04:47:04;11.60;;;9.52;;
840;SDS011;406;48.566;13.450;2023-02-28T04:49:30;8.55;;;6.05;;
840;SDS011;406;48.566;13.450;2023-02-28T04:51:58;10.63;;;6.68;;
840;SDS011;406;48.566;13.450;2023-02-28T04:54:24;22.15;;;7.85;;
840;SDS011;406;48.566;13.450;2023-02-28T04:56:51;8.63;;;5.55;;
840;SDS011;406;48.566;13.450;2023-02-28T04:59:17;11.10;;;5.85;;
840;SDS011;406;48.566;13.450;2023-02-28T05:01:47;11.52;;;5.75;;
840;SDS011;406;48.566;13.450;2023-02-28T05:04:14;10.77;;;8.13;;
840;SDS011;406;48.566;13.450;2023-02-28T05:06:41;10.57;;;7.72;;
840;SDS011;406;48.566;13.450;2023-02-28T05:09:07;12.50;;;8.18;;
840;SDS011;406;48.566;13.450;2023-02-28T05:11:34;8.90;;;6.65;;
840;SDS011;406;48.566;13.450;2023-02-28T05:14:05;10.75;;;8.05;;
840;SDS011;406;48.566;13.450;2023-02-28T05:16:35;14.95;;;10.35;;
840;SDS011;406;48.566;13.450;2023-02-28T05:19:01;13.05;;;8.38;;
840;SDS011;406;48.566;13.450;2023-02-28T05:21:29;12.88;;;8.93;;
840;SDS011;406;48.566;13.450;2023-02-28T05:24:00;11.43;;;8.15;;
840;SDS011;406;48.566;13.450;2023-02-28T05:26:29;11.95;;;7.40;;
840;SDS011;406;48.566;13.450;2023-02-28T05:28:56;11.70;;;8.70;;
840;SDS011;406;48.566;13.450;2023-02-28T05:31:23;10.10;;;7.20;;
840;SDS011;406;48.566;13.450;2023-02-28T05:33:49;10.35;;;8.35;;
840;SDS011;406;48.566;13.450;2023-02-28T05:36:16;12.27;;;8.88;;
840;SDS011;406;48.566;13.450;2023-02-28T05:38:42;11.02;;;7.78;;
840;SDS011;406;48.566;13.450;2023-02-28T05:41:09;11.25;;;7.80;;
840;SDS011;406;48.566;13.450;2023-02-28T05:43:37;12.02;;;9.32;;
840;SDS011;406;48.566;13.450;2023-02-28T05:46:04;12.50;;;7.32;;
840;SDS011;406;48.566;13.450;2023-02-28T05:48:35;15.45;;;9.95;;
840;SDS011;406;48.566;13.450;2023-02-28T05:51:03;10.95;;;9.15;;
840;SDS011;406;48.566;13.450;2023-02-28T05:53:30;12.02;;;7.93;;
840;SDS011;406;48.566;13.450;2023-02-28T05:55:57;13.45;;;8.68;;
840;SDS011;406;48.566;13.450;2023-02-28T05:58:24;11.50;;;8.15;;
840;SDS011;406;48.566;13.450;2023-02-28T06:01:00;11.27;;;7.80;;
840;SDS011;406;48.566;13.450;2023-02-28T06:03:27;11.57;;;8.70;;
840;SDS011;406;48.566;13.450;2023-02-28T06:05:54;7.13;;;6.10;;
840;SDS011;406;48.566;13.450;2023-02-28T06:08:20;12.63;;;7.88;;
840;SDS011;406;48.566;13.450;2023-02-28T06:10:47;10.00;;;6.43;;
840;SDS011;406;48.566;13.450;2023-02-28T06:13:13;10.82;;;6.90;;
840;SDS011;406;48.566;13.450;2023-02-28T06:15:40;12.27;;;8.00;;
840;SDS011;406;48.566;13.450;2023-02-28T06:18:06;11.20;;;8.95;;
840;SDS011;406;48.566;13.450;2023-02-28T06:20:33;11.45;;;9.05;;
840;SDS011;406;48.566;13.450;2023-02-28T06:23:00;9.52;;;6.63;;
840;SDS011;406;48.566;13.450;2023-02-28T06:25:27;13.60;;;9.70;;
840;SDS011;406;48.566;13.450;2023-02-28T06:27:54;11.63;;;9.55;;
840;SDS011;406;48.566;13.450;2023-02-28T06:30:21;13.13;;;8.88;;
840;SDS011;406;48.566;13.450;2023-02-28T06:32:51;14.82;;;10.65;;
840;SDS011;406;48.566;13.450;2023-02-28T06:35:18;14.07;;;10.38;;
840;SDS011;406;48.566;13.450;2023-02-28T06:37:44;13.25;;;9.25;;
840;SDS011;406;48.566;13.450;2023-02-28T06:40:11;9.50;;;6.30;;
840;SDS011;406;48.566;13.450;2023-02-28T06:42:39;10.45;;;8.98;;
840;SDS011;406;48.566;13.450;2023-02-28T06:45:05;13.77;;;8.65;;
840;SDS011;406;48.566;13.450;2023-02-28T06:47:36;10.07;;;7.90;;
840;SDS011;406;48.566;13.450;2023-02-28T06:50:04;11.90;;;5.97;;
840;SDS011;406;48.566;13.450;2023-02-28T06:52:31;11.10;;;9.32;;
840;SDS011;406;48.566;13.450;2023-02-28T06:54:58;15.52;;;10.27;;
840;SDS011;406;48.566;13.450;2023-02-28T06:57:28;12.65;;;9.52;;
840;SDS011;406;48.566;13.450;2023-02-28T06:59:57;12.35;;;8.30;;
840;SDS011;406;48.566;13.450;2023-02-28T07:02:25;12.35;;;9.05;;
840;SDS011;406;48.566;13.450;2023-02-28T07:04:52;13.50;;;5.47;;
840;SDS011;406;48.566;13.450;2023-02-28T07:07:19;12.07;;;10.40;;
840;SDS011;406;48.566;13.450;2023-02-28T07:09:45;13.05;;;10.63;;
840;SDS011;406;48.566;13.450;2023-02-28T07:12:12;13.23;;;7.05;;
840;SDS011;406;48.566;13.450;2023-02-28T07:14:38;13.40;;;9.63;;
840;SDS011;406;48.566;13.450;2023-02-28T07:17:06;13.75;;;10.43;;
840;SDS011;406;48.566;13.450;2023-02-28T07:19:34;14.45;;;10.40;;
840;SDS011;406;48.566;13.450;2023-02-28T07:22:00;13.25;;;10.40;;
840;SDS011;406;48.566;13.450;2023-02-28T07:24:29;12.27;;;8.00;;
840;SDS011;406;48.566;13.450;2023-02-28T07:26:56;14.50;;;11.15;;
840;SDS011;406;48.566;13.450;2023-02-28T07:29:22;13.27;;;9.10;;
840;SDS011;406;48.566;13.450;2023-02-28T07:31:49;11.05;;;8.23;;
840;SDS011;406;48.566;13.450;2023-02-28T07:34:19;12.23;;;9.27;;
840;SDS011;406;48.566;13.450;2023-02-28T07:36:46;12.52;;;9.20;;
840;SDS011;406;48.566;13.450;2023-02-28T07:39:13;14.32;;;10.38;;
840;SDS011;406;48.566;13.450;2023-02-28T07:41:40;10.55;;;8.40;;
840;SDS011;406;48.566;13.450;2023-02-28T07:44:10;10.32;;;9.23;;
840;SDS011;406;48.566;13.450;2023-02-28T07:46:37;12.73;;;9.73;;
840;SDS011;406;48.566;13.450;2023-02-28T07:49:04;12.40;;;9.40;;
840;SDS011;406;48.566;13.450;2023-02-28T07:51:32;14.57;;;10.70;;
840;SDS011;406;48.566;13.450;2023-02-28T07:53:59;12.00;;;9.93;;
840;SDS011;406;48.566;13.450;2023-02-28T07:56:25;10.45;;;6.28;;
840;SDS011;406;48.566;13.450;2023-02-28T07:58:53;8.73;;;6.15;;
840;SDS011;406;48.566;13.450;2023-02-28T08:01:19;12.93;;;9.32;;
840;SDS011;406;48.566;13.450;2023-02-28T08:03:46;12.27;;;9.27;;
840;SDS011;406;48.566;13.450;2023-02-28T08:06:17;13.77;;;11.27;;
840;SDS011;406;48.566;13.450;2023-02-28T08:08:46;12.43;;;6.20;;
840;SDS011;406;48.566;13.450;2023-02-28T08:11:13;11.98;;;6.63;;
840;SDS011;406;48.566;13.450;2023-02-28T08:13:41;14.63;;;10.02;;
840;SDS011;406;48.566;13.450;2023-02-28T08:16:10;13.75;;;6.70;;
840;SDS011;406;48.566;13.450;2023-02-28T08:18:40;13.45;;;9.98;;
840;SDS011;406;48.566;13.450;2023-02-28T08:21:07;13.73;;;7.90;;
840;SDS011;406;48.566;13.450;2023-02-28T08:23:35;11.88;;;7.40;;
840;SDS011;406;48.566;13.450;2023-02-28T08:26:01;12.00;;;8.95;;
840;SDS011;406;48.566;13.450;2023-02-28T08:28:28;9.43;;;6.25;;
840;SDS011;406;48.566;13.450;2023-02-28T08:30:55;9.30;;;5.35;;
840;SDS011;406;48.566;13.450;2023-02-28T08:33:22;11.98;;;6.07;;
840;SDS011;406;48.566;13.450;2023-02-28T08:35:52;12.20;;;6.07;;
840;SDS011;406;48.566;13.450;2023-02-28T08:38:19;10.32;;;8.73;;
840;SDS011;406;48.566;13.450;2023-02-28T08:40:46;14.20;;;9.10;;
840;SDS011;406;48.566;13.450;2023-02-28T08:43:13;10.57;;;6.00;;
840;SDS011;406;48.566;13.450;2023-02-28T08:45:39;10.75;;;6.85;;
840;SDS011;406;48.566;13.450;2023-02-28T08:48:06;12.32;;;6.97;;
840;SDS011;406;48.566;13.450;2023-02-28T08:50:33;8.43;;;5.85;;
840;SDS011;406;48.566;13.450;2023-02-28T08:52:59;10.43;;;6.65;;
840;SDS011;406;48.566;13.450;2023-02-28T08:55:26;14.18;;;8.60;;
840;SDS011;406;48.566;13.450;2023-02-28T08:57:52;14.50;;;6.78;;
840;SDS011;406;48.566;13.450;2023-02-28T09:00:21;9.70;;;5.70;;
840;SDS011;406;48.566;13.450;2023-02-28T09:02:48;13.48;;;6.60;;
840;SDS011;406;48.566;13.450;2023-02-28T09:05:14;9.35;;;6.65;;
840;SDS011;406;48.566;13.450;2023-02-28T09:07:41;9.43;;;5.97;;
840;SDS011;406;48.566;13.450;2023-02-28T09:10:08;11.75;;;6.95;;
840;SDS011;406;48.566;13.450;2023-02-28T09:12:35;10.65;;;6.55;;
840;SDS011;406;48.566;13.450;2023-02-28T09:15:02;12.10;;;7.70;;
840;SDS011;406;48.566;13.450;2023-02-28T09:17:29;13.40;;;7.53;;
840;SDS011;406;48.566;13.450;2023-02-28T09:19:56;12.55;;;7.65;;
840;SDS011;406;48.566;13.450;2023-02-28T09:22:23;12.65;;;7.43;;
840;SDS011;406;48.566;13.450;2023-02-28T09:24:50;13.00;;;7.63;;
840;SDS011;406;48.566;13.450;2023-02-28T09:27:16;11.93;;;7.68;;
840;SDS011;406;48.566;13.450;2023-02-28T09:29:43;10.65;;;6.25;;
840;SDS011;406;48.566;13.450;2023-02-28T09:32:09;11.57;;;7.63;;
840;SDS011;406;48.566;13.450;2023-02-28T09:34:36;13.25;;;7.65;;
840;SDS011;406;48.566;13.450;2023-02-28T09:37:03;10.23;;;7.80;;
840;SDS011;406;48.566;13.450;2023-02-28T09:39:30;12.23;;;7.45;;
840;SDS011;406;48.566;13.450;2023-02-28T09:41:57;11.37;;;6.57;;
840;SDS011;406;48.566;13.450;2023-02-28T09:50:17;13.25;;;8.35;;
840;SDS011;406;48.566;13.450;2023-02-28T09:52:54;11.77;;;8.15;;
840;SDS011;406;48.566;13.450;2023-02-28T09:55:44;11.55;;;8.23;;
840;SDS011;406;48.566;13.450;2023-02-28T10:01:37;12.87;;;9.13;;
840;SDS011;406;48.566;13.450;2023-02-28T10:07:00;10.48;;;6.60;;
840;SDS011;406;48.566;13.450;2023-02-28T10:09:30;11.27;;;8.50;;
840;SDS011;406;48.566;13.450;2023-02-28T10:12:04;11.70;;;7.60;;
840;SDS011;406;48.566;13.450;2023-02-28T10:14:33;13.17;;;7.60;;
840;SDS011;406;48.566;13.450;2023-02-28T10:24:43;12.13;;;7.50;;
840;SDS011;406;48.566;13.450;2023-02-28T10:27:18;12.77;;;8.37;;
840;SDS011;406;48.566;13.450;2023-02-28T10:29:46;13.13;;;7.97;;
840;SDS011;406;48.566;13.450;2023-02-28T10:32:14;13.07;;;8.63;;
840;SDS011;406;48.566;13.450;2023-02-28T10:34:43;13.17;;;8.47;;
840;SDS011;406;48.566;13.450;2023-02-28T10:37:13;16.53;;;6.97;;
840;SDS011;406;48.566;13.450;2023-02-28T10:39:41;13.00;;;9.03;;
840;SDS011;406;48.566;13.450;2023-02-28T10:42:22;12.70;;;9.57;;
840;SDS011;406;48.566;13.450;2023-02-28T10:47:33;11.20;;;9.20;;
840;SDS011;406;48.566;13.450;2023-02-28T10:50:01;15.43;;;9.07;;
840;SDS011;406;48.566;13.450;2023-02-28T10:52:32;17.83;;;9.15;;
840;SDS011;406;48.566;13.450;2023-02-28T10:58:02;14.60;;;8.87;;
840;SDS011;406;48.566;13.450;2023-02-28T11:00:35;11.80;;;7.90;;
840;SDS011;406;48.566;13.450;2023-02-28T11:03:01;11.30;;;7.40;;
840;SDS011;406;48.566;13.450;2023-02-28T11:05:49;13.10;;;8.40;;
840;SDS011;406;48.566;13.450;2023-02-28T11:08:17;11.67;;;8.47;;
840;SDS011;406;48.566;13.450;2023-02-28T11:10:44;16.97;;;9.33;;
840;SDS011;406;48.566;13.450;2023-02-28T11:13:19;13.00;;;8.17;;
840;SDS011;406;48.566;13.450;2023-02-28T11:15:52;14.70;;;9.33;;
840;SDS011;406;48.566;13.450;2023-02-28T11:18:27;13.47;;;8.97;;
840;SDS011;406;48.566;13.450;2023-02-28T11:20:56;14.63;;;8.70;;
840;SDS011;406;48.566;13.450;2023-02-28T11:23:28;13.50;;;9.20;;
840;SDS011;406;48.566;13.450;2023-02-28T11:25:59;16.97;;;9.67;;
840;SDS011;406;48.566;13.450;2023-02-28T11:28:37;18.07;;;10.07;;
840;SDS011;406;48.566;13.450;2023-02-28T11:36:13;11.30;;;7.53;;
840;SDS011;406;48.566;13.450;2023-02-28T11:38:47;12.50;;;9.57;;
840;SDS011;406;48.566;13.450;2023-02-28T11:46:51;13.33;;;9.63;;
840;SDS011;406;48.566;13.450;2023-02-28T11:49:30;15.60;;;9.27;;
840;SDS011;406;48.566;13.450;2023-02-28T11:52:05;14.43;;;9.80;;
840;SDS011;406;48.566;13.450;2023-02-28T11:57:20;16.33;;;10.70;;
840;SDS011;406;48.566;13.450;2023-02-28T11:59:56;14.93;;;9.30;;
840;SDS011;406;48.566;13.450;2023-02-28T12:05:46;15.97;;;10.23;;
840;SDS011;406;48.566;13.450;2023-02-28T12:08:40;14.07;;;10.87;;
840;SDS011;406;48.566;13.450;2023-02-28T12:16:46;15.30;;;10.00;;
840;SDS011;406;48.566;13.450;2023-02-28T12:24:47;16.03;;;10.40;;
840;SDS011;406;48.566;13.450;2023-02-28T12:27:20;14.30;;;10.13;;
840;SDS011;406;48.566;13.450;2023-02-28T12:29:56;13.90;;;8.93;;
840;SDS011;406;48.566;13.450;2023-02-28T12:32:32;13.30;;;9.27;;
840;SDS011;406;48.566;13.450;2023-02-28T12:37:59;16.70;;;11.03;;
840;SDS011;406;48.566;13.450;2023-02-28T12:40:26;16.10;;;11.50;;
840;SDS011;406;48.566;13.450;2023-02-28T12:42:59;11.60;;;7.53;;
840;SDS011;406;48.566;13.450;2023-02-28T12:48:08;15.90;;;10.03;;
840;SDS011;406;48.566;13.450;2023-02-28T12:50:37;14.07;;;10.77;;
840;SDS011;406;48.566;13.450;2023-02-28T12:53:24;16.50;;;10.53;;
840;SDS011;406;48.566;13.450;2023-02-28T13:01:24;13.30;;;10.00;;
840;SDS011;406;48.566;13.450;2023-02-28T13:09:23;15.27;;;9.40;;
840;SDS011;406;48.566;13.450;2023-02-28T13:11:50;18.20;;;11.03;;
840;SDS011;406;48.566;13.450;2023-02-28T13:17:10;13.47;;;10.20;;
840;SDS011;406;48.566;13.450;2023-02-28T13:19:39;12.43;;;9.10;;
840;SDS011;406;48.566;13.450;2023-02-28T13:22:36;15.40;;;10.30;;
840;SDS011;406;48.566;13.450;2023-02-28T13:28:00;16.13;;;10.03;;
840;SDS011;406;48.566;13.450;2023-02-28T13:38:53;14.87;;;10.07;;
840;SDS011;406;48.566;13.450;2023-02-28T13:41:40;11.90;;;8.80;;
840;SDS011;406;48.566;13.450;2023-02-28T13:49:28;14.17;;;10.10;;
840;SDS011;406;48.566;13.450;2023-02-28T13:54:48;13.60;;;9.70;;
840;SDS011;406;48.566;13.450;2023-02-28T14:02:50;16.27;;;10.13;;
840;SDS011;406;48.566;13.450;2023-02-28T14:05:22;14.57;;;11.23;;
840;SDS011;406;48.566;13.450;2023-02-28T14:07:53;17.60;;;11.33;;
840;SDS011;406;48.566;13.450;2023-02-28T14:10:29;12.87;;;9.50;;
840;SDS011;406;48.566;13.450;2023-02-28T14:15:47;13.07;;;9.83;;
840;SDS011;406;48.566;13.450;2023-02-28T14:20:54;14.10;;;10.50;;
840;SDS011;406;48.566;13.450;2023-02-28T14:26:01;13.63;;;9.50;;
840;SDS011;406;48.566;13.450;2023-02-28T14:28:41;14.23;;;10.93;;
840;SDS011;406;48.566;13.450;2023-02-28T14:31:13;12.63;;;9.10;;
840;SDS011;406;48.566;13.450;2023-02-28T14:36:27;12.67;;;10.50;;
840;SDS011;406;48.566;13.450;2023-02-28T14:38:59;14.40;;;10.90;;
840;SDS011;406;48.566;13.450;2023-02-28T14:41:32;12.83;;;9.40;;
840;SDS011;406;48.566;13.450;2023-02-28T14:44:18;14.30;;;10.20;;
840;SDS011;406;48.566;13.450;2023-02-28T14:46:56;14.10;;;9.33;;
840;SDS011;406;48.566;13.450;2023-02-28T14:49:28;13.97;;;10.30;;
840;SDS011;406;48.566;13.450;2023-02-28T14:54:38;12.50;;;9.30;;
840;SDS011;406;48.566;13.450;2023-02-28T14:57:05;14.30;;;10.77;;
840;SDS011;406;48.566;13.450;2023-02-28T14:59:33;14.47;;;10.70;;
840;SDS011;406;48.566;13.450;2023-02-28T15:02:18;16.67;;;10.90;;
840;SDS011;406;48.566;13.450;2023-02-28T15:04:56;16.17;;;11.20;;
840;SDS011;406;48.566;13.450;2023-02-28T15:07:24;16.43;;;11.80;;
840;SDS011;406;48.566;13.450;2023-02-28T15:12:41;16.07;;;9.87;;
840;SDS011;406;48.566;13.450;2023-02-28T15:15:17;12.73;;;10.30;;
840;SDS011;406;48.566;13.450;2023-02-28T15:17:44;13.97;;;10.37;;
840;SDS011;406;48.566;13.450;2023-02-28T15:20:12;17.17;;;11.23;;
840;SDS011;406;48.566;13.450;2023-02-28T15:22:40;15.87;;;10.67;;
840;SDS011;406;48.566;13.450;2023-02-28T15:25:06;16.10;;;10.23;;
840;SDS011;406;48.566;13.450;2023-02-28T15:27:44;15.50;;;11.27;;
840;SDS011;406;48.566;13.450;2023-02-28T15:30:23;12.83;;;9.07;;
840;SDS011;406;48.566;13.450;2023-02-28T15:35:37;13.47;;;10.10;;
840;SDS011;406;48.566;13.450;2023-02-28T15:40:57;13.93;;;10.43;;
840;SDS011;406;48.566;13.450;2023-02-28T15:46:04;16.70;;;10.67;;
840;SDS011;406;48.566;13.450;2023-02-28T15:48:52;12.20;;;9.77;;
840;SDS011;406;48.566;13.450;2023-02-28T15:51:22;13.53;;;9.80;;
840;SDS011;406;48.566;13.450;2023-02-28T15:54:00;16.13;;;11.33;;
840;SDS011;406;48.566;13.450;2023-02-28T15:56:29;15.07;;;9.93;;
840;SDS011;406;48.566;13.450;2023-02-28T15:58:58;14.07;;;9.80;;
840;SDS011;406;48.566;13.450;2023-02-28T16:01:38;16.10;;;10.93;;
840;SDS011;406;48.566;13.450;2023-02-28T16:04:06;18.17;;;11.90;;
840;SDS011;406;48.566;13.450;2023-02-28T16:07:12;13.30;;;10.70;;
840;SDS011;406;48.566;13.450;2023-02-28T16:09:31;15.50;;;9.50;;
840;SDS011;406;48.566;13.450;2023-02-28T16:12:00;13.30;;;9.00;;
840;SDS011;406;48.566;13.450;2023-02-28T16:14:28;14.97;;;11.10;;
840;SDS011;406;48.566;13.450;2023-02-28T16:17:01;13.73;;;10.47;;
840;SDS011;406;48.566;13.450;2023-02-28T16:19:30;17.37;;;10.70;;
840;SDS011;406;48.566;13.450;2023-02-28T16:21:59;15.50;;;11.03;;
840;SDS011;406;48.566;13.450;2023-02-28T16:24:26;13.30;;;9.60;;
840;SDS011;406;48.566;13.450;2023-02-28T16:26:53;16.03;;;9.80;;
840;SDS011;406;48.566;13.450;2023-02-28T16:29:24;15.03;;;10.50;;
840;SDS011;406;48.566;13.450;2023-02-28T16:31:59;17.80;;;10.57;;
840;SDS011;406;48.566;13.450;2023-02-28T16:34:26;17.87;;;12.47;;
840;SDS011;406;48.566;13.450;2023-02-28T16:36:52;16.60;;;11.03;;
840;SDS011;406;48.566;13.450;2023-02-28T16:39:19;16.40;;;10.90;;
840;SDS011;406;48.566;13.450;2023-02-28T16:41:49;14.90;;;11.03;;
840;SDS011;406;48.566;13.450;2023-02-28T16:44:29;14.50;;;11.03;;
840;SDS011;406;48.566;13.450;2023-02-28T16:47:02;12.73;;;10.60;;
840;SDS011;406;48.566;13.450;2023-02-28T16:49:29;17.30;;;10.67;;
840;SDS011;406;48.566;13.450;2023-02-28T16:51:56;14.10;;;10.03;;
840;SDS011;406;48.566;13.450;2023-02-28T16:54:23;14.47;;;9.73;;
840;SDS011;406;48.566;13.450;2023-02-28T16:56:49;15.63;;;11.20;;
840;SDS011;406;48.566;13.450;2023-02-28T16:59:18;17.43;;;10.10;;
840;SDS011;406;48.566;13.450;2023-02-28T17:01:46;12.23;;;8.47;;
840;SDS011;406;48.566;13.450;2023-02-28T17:04:12;15.80;;;11.43;;
840;SDS011;406;48.566;13.450;2023-02-28T17:06:41;16.23;;;11.30;;
840;SDS011;406;48.566;13.450;2023-02-28T17:09:10;14.40;;;10.37;;
840;SDS011;406;48.566;13.450;2023-02-28T17:11:42;13.47;;;10.53;;
840;SDS011;406;48.566;13.450;2023-02-28T17:14:08;14.80;;;10.97;;
840;SDS011;406;48.566;13.450;2023-02-28T17:16:35;16.03;;;9.53;;
840;SDS011;406;48.566;13.450;2023-02-28T17:19:06;14.00;;;11.00;;
840;SDS011;406;48.566;13.450;2023-02-28T17:21:37;17.00;;;11.70;;
840;SDS011;406;48.566;13.450;2023-02-28T17:24:04;15.20;;;10.53;;
840;SDS011;406;48.566;13.450;2023-02-28T17:26:30;16.77;;;10.57;;
840;SDS011;406;48.566;13.450;2023-02-28T17:28:58;15.37;;;10.47;;
840;SDS011;406;48.566;13.450;2023-02-28T17:31:25;17.30;;;11.20;;
840;SDS011;406;48.566;13.450;2023-02-28T17:33:53;16.77;;;10.97;;
840;SDS011;406;48.566;13.450;2023-02-28T17:36:22;16.10;;;10.70;;
840;SDS011;406;48.566;13.450;2023-02-28T17:38:51;13.40;;;10.33;;
840;SDS011;406;48.566;13.450;2023-02-28T17:41:19;17.03;;;11.47;;
840;SDS011;406;48.566;13.450;2023-02-28T17:43:46;17.23;;;11.30;;
840;SDS011;406;48.566;13.450;2023-02-28T17:46:16;16.33;;;10.27;;
840;SDS011;406;48.566;13.450;2023-02-28T17:48:48;13.30;;;10.37;;
840;SDS011;406;48.566;13.450;2023-02-28T17:51:16;15.93;;;11.77;;
840;SDS011;406;48.566;13.450;2023-02-28T17:53:44;17.57;;;11.47;;
840;SDS011;406;48.566;13.450;2023-02-28T17:56:15;19.90;;;12.10;;
840;SDS011;406;48.566;13.450;2023-02-28T17:58:44;18.60;;;12.80;;
840;SDS011;406;48.566;13.450;2023-02-28T18:01:11;18.80;;;12.90;;
840;SDS011;406;48.566;13.450;2023-02-28T18:03:38;20.10;;;12.87;;
840;SDS011;406;48.566;13.450;2023-02-28T18:06:06;18.43;;;12.67;;
840;SDS011;406;48.566;13.450;2023-02-28T18:08:32;15.60;;;10.63;;